sensor_id;sensor_type;location;lat;lon;timestamp;P1;durP1;ratioP1;P2;durP2;ratioP2
37367;SDS011;23240;43.210;27.910;2022-12-18T00:00:27;5.20;;;2.30;;
37367;SDS011;23240;43.210;27.910;2022-12-18T00:02:52;3.30;;;1.98;;
37367;SDS011;23240;43.210;27.910;2022-12-18T00:05:18;3.45;;;2.50;;
37367;SDS011;23240;43.210;27.910;2022-12-18T00:07:43;5.55;;;2.15;;
37367;SDS011;23240;43.210;27.910;2022-12-18T00:10:09;2.70;;;1.73;;
37367;SDS011;23240;43.210;27.910;2022-12-18T00:12:34;4.20;;;2.42;;
37367;SDS011;23240;43.210;27.910;2022-12-18T00:15:00;6.63;;;1.95;;
37367;SDS011;23240;43.210;27.910;2022-12-18T00:17:25;4.32;;;1.80;;
37367;SDS011;23240;43.210;27.910;2022-12-18T00:19:51;2.70;;;1.85;;
37367;SDS011;23240;43.210;27.910;2022-12-18T00:22:16;5.07;;;2.05;;
37367;SDS011;23240;43.210;27.910;2022-12-18T00:24:42;2.80;;;1.67;;
37367;SDS011;23240;43.210;27.910;2022-12-18T00:27:07;2.53;;;2.08;;
37367;SDS011;23240;43.210;27.910;2022-12-18T00:29:33;3.42;;;2.50;;
37367;SDS011;23240;43.210;27.910;2022-12-18T00:31:58;4.78;;;2.03;;
37367;SDS011;23240;43.210;27.910;2022-12-18T00:34:24;6.93;;;2.00;;
37367;SDS011;23240;43.210;27.910;2022-12-18T00:36:49;4.13;;;1.83;;
37367;SDS011;23240;43.210;27.910;2022-12-18T00:39:15;2.97;;;1.13;;
37367;SDS011;23240;43.210;27.910;2022-12-18T00:41:40;4.97;;;2.08;;
37367;SDS011;23240;43.210;27.910;2022-12-18T00:44:25;3.35;;;2.20;;
37367;SDS011;23240;43.210;27.910;2022-12-18T00:46:50;8.43;;;2.38;;
37367;SDS011;23240;43.210;27.910;2022-12-18T00:49:16;2.58;;;1.88;;
37367;SDS011;23240;43.210;27.910;2022-12-18T00:51:43;5.60;;;2.38;;
37367;SDS011;23240;43.210;27.910;2022-12-18T00:54:09;4.03;;;1.45;;
37367;SDS011;23240;43.210;27.910;2022-12-18T00:56:35;2.10;;;1.80;;
37367;SDS011;23240;43.210;27.910;2022-12-18T00:59:03;3.15;;;1.48;;
37367;SDS011;23240;43.210;27.910;2022-12-18T01:01:29;1.70;;;1.35;;
37367;SDS011;23240;43.210;27.910;2022-12-18T01:03:59;3.03;;;1.52;;
37367;SDS011;23240;43.210;27.910;2022-12-18T01:06:25;3.22;;;2.03;;
37367;SDS011;23240;43.210;27.910;2022-12-18T01:08:51;3.53;;;1.90;;
37367;SDS011;23240;43.210;27.910;2022-12-18T01:11:18;3.10;;;1.85;;
37367;SDS011;23240;43.210;27.910;2022-12-18T01:13:44;5.95;;;2.28;;
37367;SDS011;23240;43.210;27.910;2022-12-18T01:16:11;4.35;;;1.95;;
37367;SDS011;23240;43.210;27.910;2022-12-18T01:18:38;4.45;;;1.95;;
37367;SDS011;23240;43.210;27.910;2022-12-18T01:21:11;1.70;;;1.10;;
37367;SDS011;23240;43.210;27.910;2022-12-18T01:23:42;5.22;;;2.05;;
37367;SDS011;23240;43.210;27.910;2022-12-18T01:26:08;7.68;;;2.40;;
37367;SDS011;23240;43.210;27.910;2022-12-18T01:28:36;5.70;;;2.63;;
37367;SDS011;23240;43.210;27.910;2022-12-18T01:33:48;4.72;;;1.92;;
37367;SDS011;23240;43.210;27.910;2022-12-18T01:36:15;4.47;;;2.05;;
37367;SDS011;23240;43.210;27.910;2022-12-18T01:38:43;6.68;;;2.28;;
37367;SDS011;23240;43.210;27.910;2022-12-18T01:41:09;4.55;;;1.63;;
37367;SDS011;23240;43.210;27.910;2022-12-18T01:46:21;5.22;;;1.77;;
37367;SDS011;23240;43.210;27.910;2022-12-18T01:48:52;2.55;;;1.85;;
37367;SDS011;23240;43.210;27.910;2022-12-18T01:51:21;7.05;;;2.65;;
37367;SDS011;23240;43.210;27.910;2022-12-18T01:53:48;5.60;;;2.60;;
37367;SDS011;23240;43.210;27.910;2022-12-18T01:56:18;4.25;;;2.72;;
37367;SDS011;23240;43.210;27.910;2022-12-18T01:58:54;2.97;;;1.73;;
37367;SDS011;23240;43.210;27.910;2022-12-18T02:01:25;5.28;;;2.08;;
37367;SDS011;23240;43.210;27.910;2022-12-18T02:03:51;3.30;;;1.95;;
37367;SDS011;23240;43.210;27.910;2022-12-18T02:14:32;5.18;;;2.05;;
37367;SDS011;23240;43.210;27.910;2022-12-18T02:17:21;5.15;;;2.30;;
37367;SDS011;23240;43.210;27.910;2022-12-18T02:27:55;6.43;;;2.08;;
37367;SDS011;23240;43.210;27.910;2022-12-18T02:30:24;2.88;;;1.35;;
37367;SDS011;23240;43.210;27.910;2022-12-18T02:32:54;1.95;;;1.27;;
37367;SDS011;23240;43.210;27.910;2022-12-18T02:35:26;3.17;;;1.58;;
37367;SDS011;23240;43.210;27.910;2022-12-18T02:37:54;6.03;;;2.15;;
37367;SDS011;23240;43.210;27.910;2022-12-18T02:40:20;6.30;;;2.50;;
37367;SDS011;23240;43.210;27.910;2022-12-18T02:42:48;2.72;;;1.75;;
37367;SDS011;23240;43.210;27.910;2022-12-18T02:45:14;4.05;;;2.22;;
37367;SDS011;23240;43.210;27.910;2022-12-18T02:47:40;6.18;;;2.15;;
37367;SDS011;23240;43.210;27.910;2022-12-18T03:03:55;5.88;;;2.40;;
37367;SDS011;23240;43.210;27.910;2022-12-18T03:06:37;3.67;;;1.85;;
37367;SDS011;23240;43.210;27.910;2022-12-18T03:09:11;3.75;;;1.65;;
37367;SDS011;23240;43.210;27.910;2022-12-18T03:11:45;5.10;;;2.13;;
37367;SDS011;23240;43.210;27.910;2022-12-18T03:14:38;4.80;;;2.53;;
37367;SDS011;23240;43.210;27.910;2022-12-18T03:17:07;2.42;;;2.03;;
37367;SDS011;23240;43.210;27.910;2022-12-18T03:19:36;6.97;;;2.60;;
37367;SDS011;23240;43.210;27.910;2022-12-18T03:22:04;4.00;;;1.58;;
37367;SDS011;23240;43.210;27.910;2022-12-18T03:24:32;3.55;;;2.08;;
37367;SDS011;23240;43.210;27.910;2022-12-18T03:27:02;3.60;;;1.85;;
37367;SDS011;23240;43.210;27.910;2022-12-18T03:34:59;5.60;;;2.00;;
37367;SDS011;23240;43.210;27.910;2022-12-18T03:37:29;8.38;;;2.40;;
37367;SDS011;23240;43.210;27.910;2022-12-18T03:39:54;4.35;;;2.25;;
37367;SDS011;23240;43.210;27.910;2022-12-18T03:42:33;7.85;;;2.35;;
37367;SDS011;23240;43.210;27.910;2022-12-18T03:50:29;6.15;;;2.50;;
37367;SDS011;23240;43.210;27.910;2022-12-18T03:56:17;6.57;;;2.67;;
37367;SDS011;23240;43.210;27.910;2022-12-18T03:58:44;5.97;;;2.83;;
37367;SDS011;23240;43.210;27.910;2022-12-18T04:01:13;5.30;;;2.13;;
37367;SDS011;23240;43.210;27.910;2022-12-18T04:03:41;1.73;;;1.52;;
37367;SDS011;23240;43.210;27.910;2022-12-18T04:06:08;5.30;;;2.67;;
37367;SDS011;23240;43.210;27.910;2022-12-18T04:08:35;5.07;;;2.30;;
37367;SDS011;23240;43.210;27.910;2022-12-18T04:11:01;4.93;;;2.28;;
37367;SDS011;23240;43.210;27.910;2022-12-18T04:13:28;7.00;;;2.78;;
37367;SDS011;23240;43.210;27.910;2022-12-18T04:15:59;3.05;;;1.90;;
37367;SDS011;23240;43.210;27.910;2022-12-18T04:18:24;2.38;;;1.40;;
37367;SDS011;23240;43.210;27.910;2022-12-18T04:20:50;3.35;;;1.40;;
37367;SDS011;23240;43.210;27.910;2022-12-18T04:23:16;1.80;;;1.60;;
37367;SDS011;23240;43.210;27.910;2022-12-18T04:25:41;4.57;;;1.83;;
37367;SDS011;23240;43.210;27.910;2022-12-18T04:28:07;5.70;;;2.03;;
37367;SDS011;23240;43.210;27.910;2022-12-18T04:30:32;3.58;;;1.58;;
37367;SDS011;23240;43.210;27.910;2022-12-18T04:32:58;3.65;;;1.90;;
37367;SDS011;23240;43.210;27.910;2022-12-18T04:35:24;2.63;;;1.77;;
37367;SDS011;23240;43.210;27.910;2022-12-18T04:37:49;5.85;;;2.45;;
37367;SDS011;23240;43.210;27.910;2022-12-18T04:40:14;5.88;;;2.15;;
37367;SDS011;23240;43.210;27.910;2022-12-18T04:42:40;1.38;;;1.02;;
37367;SDS011;23240;43.210;27.910;2022-12-18T04:45:06;3.60;;;1.95;;
37367;SDS011;23240;43.210;27.910;2022-12-18T04:47:32;4.55;;;2.15;;
37367;SDS011;23240;43.210;27.910;2022-12-18T04:49:57;1.98;;;1.83;;
37367;SDS011;23240;43.210;27.910;2022-12-18T04:52:23;7.35;;;2.67;;
37367;SDS011;23240;43.210;27.910;2022-12-18T04:54:48;11.82;;;3.42;;
37367;SDS011;23240;43.210;27.910;2022-12-18T04:57:14;5.90;;;2.70;;
37367;SDS011;23240;43.210;27.910;2022-12-18T04:59:39;11.07;;;3.17;;
37367;SDS011;23240;43.210;27.910;2022-12-18T05:02:05;9.90;;;3.33;;
37367;SDS011;23240;43.210;27.910;2022-12-18T05:04:30;6.05;;;2.78;;
37367;SDS011;23240;43.210;27.910;2022-12-18T05:06:56;6.80;;;2.60;;
37367;SDS011;23240;43.210;27.910;2022-12-18T05:09:22;7.60;;;2.47;;
37367;SDS011;23240;43.210;27.910;2022-12-18T05:11:48;3.47;;;2.42;;
37367;SDS011;23240;43.210;27.910;2022-12-18T05:14:14;7.25;;;2.63;;
37367;SDS011;23240;43.210;27.910;2022-12-18T05:16:39;9.40;;;3.17;;
37367;SDS011;23240;43.210;27.910;2022-12-18T05:19:05;3.67;;;2.38;;
37367;SDS011;23240;43.210;27.910;2022-12-18T05:21:30;8.48;;;4.22;;
37367;SDS011;23240;43.210;27.910;2022-12-18T05:23:56;7.70;;;2.70;;
37367;SDS011;23240;43.210;27.910;2022-12-18T05:26:21;6.38;;;2.80;;
37367;SDS011;23240;43.210;27.910;2022-12-18T05:28:47;12.50;;;3.85;;
37367;SDS011;23240;43.210;27.910;2022-12-18T05:31:12;10.30;;;3.67;;
37367;SDS011;23240;43.210;27.910;2022-12-18T05:33:38;9.60;;;2.65;;
37367;SDS011;23240;43.210;27.910;2022-12-18T05:36:05;9.02;;;2.97;;
37367;SDS011;23240;43.210;27.910;2022-12-18T05:38:33;8.70;;;2.65;;
37367;SDS011;23240;43.210;27.910;2022-12-18T05:41:00;12.60;;;3.38;;
37367;SDS011;23240;43.210;27.910;2022-12-18T05:43:26;8.57;;;3.42;;
37367;SDS011;23240;43.210;27.910;2022-12-18T05:45:52;6.72;;;3.05;;
37367;SDS011;23240;43.210;27.910;2022-12-18T05:48:19;7.88;;;2.80;;
37367;SDS011;23240;43.210;27.910;2022-12-18T05:50:46;11.82;;;4.05;;
37367;SDS011;23240;43.210;27.910;2022-12-18T05:53:13;8.60;;;3.28;;
37367;SDS011;23240;43.210;27.910;2022-12-18T05:55:40;10.80;;;3.80;;
37367;SDS011;23240;43.210;27.910;2022-12-18T05:58:07;12.02;;;3.67;;
37367;SDS011;23240;43.210;27.910;2022-12-18T06:00:35;12.85;;;4.15;;
37367;SDS011;23240;43.210;27.910;2022-12-18T06:03:05;18.98;;;3.65;;
37367;SDS011;23240;43.210;27.910;2022-12-18T06:05:34;7.75;;;3.58;;
37367;SDS011;23240;43.210;27.910;2022-12-18T06:08:02;11.52;;;4.20;;
37367;SDS011;23240;43.210;27.910;2022-12-18T06:10:27;10.95;;;4.20;;
37367;SDS011;23240;43.210;27.910;2022-12-18T06:12:53;10.98;;;4.25;;
37367;SDS011;23240;43.210;27.910;2022-12-18T06:15:19;13.40;;;4.05;;
37367;SDS011;23240;43.210;27.910;2022-12-18T06:17:44;12.20;;;4.25;;
37367;SDS011;23240;43.210;27.910;2022-12-18T06:20:10;14.05;;;4.55;;
37367;SDS011;23240;43.210;27.910;2022-12-18T06:22:35;10.23;;;4.43;;
37367;SDS011;23240;43.210;27.910;2022-12-18T06:25:01;13.90;;;4.30;;
37367;SDS011;23240;43.210;27.910;2022-12-18T06:27:26;12.02;;;4.45;;
37367;SDS011;23240;43.210;27.910;2022-12-18T06:29:52;16.05;;;5.25;;
37367;SDS011;23240;43.210;27.910;2022-12-18T06:32:17;13.32;;;4.43;;
37367;SDS011;23240;43.210;27.910;2022-12-18T06:34:43;12.88;;;4.57;;
37367;SDS011;23240;43.210;27.910;2022-12-18T06:37:08;15.35;;;4.45;;
37367;SDS011;23240;43.210;27.910;2022-12-18T06:39:34;10.88;;;4.15;;
37367;SDS011;23240;43.210;27.910;2022-12-18T06:41:59;11.73;;;4.68;;
37367;SDS011;23240;43.210;27.910;2022-12-18T06:44:25;15.13;;;4.60;;
37367;SDS011;23240;43.210;27.910;2022-12-18T06:46:50;13.98;;;5.05;;
37367;SDS011;23240;43.210;27.910;2022-12-18T06:49:16;16.80;;;5.07;;
37367;SDS011;23240;43.210;27.910;2022-12-18T06:51:41;13.85;;;4.68;;
37367;SDS011;23240;43.210;27.910;2022-12-18T06:54:07;13.65;;;5.78;;
37367;SDS011;23240;43.210;27.910;2022-12-18T06:56:33;15.50;;;4.57;;
37367;SDS011;23240;43.210;27.910;2022-12-18T06:58:59;18.23;;;5.75;;
37367;SDS011;23240;43.210;27.910;2022-12-18T07:01:25;16.58;;;4.75;;
37367;SDS011;23240;43.210;27.910;2022-12-18T07:03:52;11.90;;;4.97;;
37367;SDS011;23240;43.210;27.910;2022-12-18T07:06:20;17.17;;;5.53;;
37367;SDS011;23240;43.210;27.910;2022-12-18T07:08:48;17.65;;;5.63;;
37367;SDS011;23240;43.210;27.910;2022-12-18T07:11:14;14.07;;;4.72;;
37367;SDS011;23240;43.210;27.910;2022-12-18T07:13:41;14.10;;;4.78;;
37367;SDS011;23240;43.210;27.910;2022-12-18T07:16:07;18.25;;;4.75;;
37367;SDS011;23240;43.210;27.910;2022-12-18T07:18:34;14.25;;;4.78;;
37367;SDS011;23240;43.210;27.910;2022-12-18T07:21:04;12.55;;;4.25;;
37367;SDS011;23240;43.210;27.910;2022-12-18T07:23:31;16.35;;;4.97;;
37367;SDS011;23240;43.210;27.910;2022-12-18T07:26:00;19.25;;;5.32;;
37367;SDS011;23240;43.210;27.910;2022-12-18T07:28:27;13.77;;;5.88;;
37367;SDS011;23240;43.210;27.910;2022-12-18T07:30:52;17.70;;;4.80;;
37367;SDS011;23240;43.210;27.910;2022-12-18T07:33:18;14.10;;;5.20;;
37367;SDS011;23240;43.210;27.910;2022-12-18T07:35:43;18.73;;;6.18;;
37367;SDS011;23240;43.210;27.910;2022-12-18T07:38:09;20.48;;;6.80;;
37367;SDS011;23240;43.210;27.910;2022-12-18T07:40:34;13.98;;;4.22;;
37367;SDS011;23240;43.210;27.910;2022-12-18T07:43:00;17.02;;;5.13;;
37367;SDS011;23240;43.210;27.910;2022-12-18T07:45:25;16.85;;;5.18;;
37367;SDS011;23240;43.210;27.910;2022-12-18T07:47:51;19.30;;;6.07;;
37367;SDS011;23240;43.210;27.910;2022-12-18T07:50:16;14.45;;;4.50;;
37367;SDS011;23240;43.210;27.910;2022-12-18T07:52:42;12.85;;;4.63;;
37367;SDS011;23240;43.210;27.910;2022-12-18T07:55:08;19.50;;;6.90;;
37367;SDS011;23240;43.210;27.910;2022-12-18T07:57:33;14.57;;;4.43;;
37367;SDS011;23240;43.210;27.910;2022-12-18T07:59:59;16.00;;;5.88;;
37367;SDS011;23240;43.210;27.910;2022-12-18T08:02:24;11.52;;;4.97;;
37367;SDS011;23240;43.210;27.910;2022-12-18T08:04:50;15.43;;;6.22;;
37367;SDS011;23240;43.210;27.910;2022-12-18T08:07:15;19.92;;;7.30;;
37367;SDS011;23240;43.210;27.910;2022-12-18T08:09:41;17.88;;;5.57;;
37367;SDS011;23240;43.210;27.910;2022-12-18T08:12:06;17.17;;;4.68;;
37367;SDS011;23240;43.210;27.910;2022-12-18T08:14:32;16.10;;;6.25;;
37367;SDS011;23240;43.210;27.910;2022-12-18T08:16:58;12.50;;;4.47;;
37367;SDS011;23240;43.210;27.910;2022-12-18T08:19:23;17.42;;;5.72;;
37367;SDS011;23240;43.210;27.910;2022-12-18T08:21:48;11.60;;;5.75;;
37367;SDS011;23240;43.210;27.910;2022-12-18T08:24:14;18.48;;;6.18;;
37367;SDS011;23240;43.210;27.910;2022-12-18T08:26:40;9.95;;;3.90;;
37367;SDS011;23240;43.210;27.910;2022-12-18T08:29:05;11.90;;;4.97;;
37367;SDS011;23240;43.210;27.910;2022-12-18T08:31:31;10.82;;;5.57;;
37367;SDS011;23240;43.210;27.910;2022-12-18T08:33:56;13.98;;;5.25;;
37367;SDS011;23240;43.210;27.910;2022-12-18T08:36:22;14.98;;;4.47;;
37367;SDS011;23240;43.210;27.910;2022-12-18T08:38:48;13.68;;;5.15;;
37367;SDS011;23240;43.210;27.910;2022-12-18T08:41:15;13.82;;;5.45;;
37367;SDS011;23240;43.210;27.910;2022-12-18T08:43:42;7.72;;;3.92;;
37367;SDS011;23240;43.210;27.910;2022-12-18T08:46:26;7.68;;;4.13;;
37367;SDS011;23240;43.210;27.910;2022-12-18T08:48:57;10.95;;;5.50;;
37367;SDS011;23240;43.210;27.910;2022-12-18T08:51:23;19.20;;;5.65;;
37367;SDS011;23240;43.210;27.910;2022-12-18T08:53:48;23.10;;;6.72;;
37367;SDS011;23240;43.210;27.910;2022-12-18T08:56:14;10.57;;;5.28;;
37367;SDS011;23240;43.210;27.910;2022-12-18T08:58:40;16.38;;;6.60;;
37367;SDS011;23240;43.210;27.910;2022-12-18T09:01:07;12.75;;;4.30;;
37367;SDS011;23240;43.210;27.910;2022-12-18T09:03:34;23.02;;;7.40;;
37367;SDS011;23240;43.210;27.910;2022-12-18T09:06:00;14.55;;;5.78;;
37367;SDS011;23240;43.210;27.910;2022-12-18T09:08:26;11.32;;;5.47;;
37367;SDS011;23240;43.210;27.910;2022-12-18T09:10:52;13.63;;;4.45;;
37367;SDS011;23240;43.210;27.910;2022-12-18T09:13:18;15.95;;;6.53;;
37367;SDS011;23240;43.210;27.910;2022-12-18T09:15:47;21.65;;;6.82;;
37367;SDS011;23240;43.210;27.910;2022-12-18T09:18:16;18.75;;;7.25;;
37367;SDS011;23240;43.210;27.910;2022-12-18T09:20:42;15.93;;;6.22;;
37367;SDS011;23240;43.210;27.910;2022-12-18T09:23:09;19.90;;;6.30;;
37367;SDS011;23240;43.210;27.910;2022-12-18T09:25:35;18.27;;;8.02;;
37367;SDS011;23240;43.210;27.910;2022-12-18T09:28:02;23.33;;;7.20;;
37367;SDS011;23240;43.210;27.910;2022-12-18T09:30:30;21.10;;;7.18;;
37367;SDS011;23240;43.210;27.910;2022-12-18T09:32:58;19.80;;;6.85;;
37367;SDS011;23240;43.210;27.910;2022-12-18T09:35:23;26.90;;;7.40;;
37367;SDS011;23240;43.210;27.910;2022-12-18T09:37:49;17.20;;;7.05;;
37367;SDS011;23240;43.210;27.910;2022-12-18T09:40:19;16.88;;;6.07;;
37367;SDS011;23240;43.210;27.910;2022-12-18T09:42:57;14.57;;;6.53;;
37367;SDS011;23240;43.210;27.910;2022-12-18T09:45:26;20.98;;;7.55;;
37367;SDS011;23240;43.210;27.910;2022-12-18T09:47:52;18.90;;;6.47;;
37367;SDS011;23240;43.210;27.910;2022-12-18T09:50:24;20.63;;;8.25;;
37367;SDS011;23240;43.210;27.910;2022-12-18T09:52:56;23.23;;;7.45;;
37367;SDS011;23240;43.210;27.910;2022-12-18T09:55:34;21.00;;;6.45;;
37367;SDS011;23240;43.210;27.910;2022-12-18T09:58:21;21.45;;;7.45;;
37367;SDS011;23240;43.210;27.910;2022-12-18T10:00:53;31.23;;;8.45;;
37367;SDS011;23240;43.210;27.910;2022-12-18T10:03:20;18.13;;;6.60;;
37367;SDS011;23240;43.210;27.910;2022-12-18T10:19:37;23.08;;;7.57;;
37367;SDS011;23240;43.210;27.910;2022-12-18T10:22:31;19.00;;;6.93;;
37367;SDS011;23240;43.210;27.910;2022-12-18T10:27:51;18.70;;;6.10;;
37367;SDS011;23240;43.210;27.910;2022-12-18T10:30:21;16.77;;;6.32;;
37367;SDS011;23240;43.210;27.910;2022-12-18T10:32:47;18.30;;;6.57;;
37367;SDS011;23240;43.210;27.910;2022-12-18T10:35:16;20.05;;;6.43;;
37367;SDS011;23240;43.210;27.910;2022-12-18T10:38:02;16.35;;;6.15;;
37367;SDS011;23240;43.210;27.910;2022-12-18T10:40:30;18.35;;;6.55;;
37367;SDS011;23240;43.210;27.910;2022-12-18T10:43:09;15.25;;;6.60;;
37367;SDS011;23240;43.210;27.910;2022-12-18T10:45:37;17.88;;;6.60;;
37367;SDS011;23240;43.210;27.910;2022-12-18T10:48:03;20.63;;;5.88;;
37367;SDS011;23240;43.210;27.910;2022-12-18T10:50:32;12.15;;;5.57;;
37367;SDS011;23240;43.210;27.910;2022-12-18T10:53:00;21.02;;;5.97;;
37367;SDS011;23240;43.210;27.910;2022-12-18T10:55:37;10.63;;;4.78;;
37367;SDS011;23240;43.210;27.910;2022-12-18T11:00:45;21.52;;;6.75;;
37367;SDS011;23240;43.210;27.910;2022-12-18T11:03:33;15.70;;;5.45;;
37367;SDS011;23240;43.210;27.910;2022-12-18T11:06:11;16.17;;;6.13;;
37367;SDS011;23240;43.210;27.910;2022-12-18T11:08:38;21.10;;;7.32;;
37367;SDS011;23240;43.210;27.910;2022-12-18T11:11:07;22.05;;;6.82;;
37367;SDS011;23240;43.210;27.910;2022-12-18T11:13:42;24.95;;;6.78;;
37367;SDS011;23240;43.210;27.910;2022-12-18T11:16:42;24.95;;;6.10;;
37367;SDS011;23240;43.210;27.910;2022-12-18T11:22:20;10.60;;;5.28;;
37367;SDS011;23240;43.210;27.910;2022-12-18T11:27:27;20.27;;;6.40;;
37367;SDS011;23240;43.210;27.910;2022-12-18T11:30:06;21.02;;;6.80;;
37367;SDS011;23240;43.210;27.910;2022-12-18T11:40:58;19.88;;;6.57;;
37367;SDS011;23240;43.210;27.910;2022-12-18T11:43:33;20.23;;;6.85;;
37367;SDS011;23240;43.210;27.910;2022-12-18T11:46:06;22.15;;;5.75;;
37367;SDS011;23240;43.210;27.910;2022-12-18T11:48:44;21.45;;;6.80;;
37367;SDS011;23240;43.210;27.910;2022-12-18T11:51:17;20.40;;;5.85;;
37367;SDS011;23240;43.210;27.910;2022-12-18T11:53:51;19.75;;;6.50;;
37367;SDS011;23240;43.210;27.910;2022-12-18T12:07:16;16.38;;;6.03;;
37367;SDS011;23240;43.210;27.910;2022-12-18T12:15:27;18.50;;;5.85;;
37367;SDS011;23240;43.210;27.910;2022-12-18T12:20:49;12.95;;;4.65;;
37367;SDS011;23240;43.210;27.910;2022-12-18T12:25:45;12.93;;;5.45;;
37367;SDS011;23240;43.210;27.910;2022-12-18T12:36:52;17.90;;;5.05;;
37367;SDS011;23240;43.210;27.910;2022-12-18T12:39:42;11.93;;;3.92;;
37367;SDS011;23240;43.210;27.910;2022-12-18T12:42:14;10.50;;;4.30;;
37367;SDS011;23240;43.210;27.910;2022-12-18T12:45:04;8.75;;;3.78;;
37367;SDS011;23240;43.210;27.910;2022-12-18T12:47:39;11.45;;;4.43;;
37367;SDS011;23240;43.210;27.910;2022-12-18T12:50:12;18.60;;;5.53;;
37367;SDS011;23240;43.210;27.910;2022-12-18T12:52:44;9.18;;;4.40;;
37367;SDS011;23240;43.210;27.910;2022-12-18T12:55:21;12.75;;;4.88;;
37367;SDS011;23240;43.210;27.910;2022-12-18T13:03:43;7.03;;;3.40;;
37367;SDS011;23240;43.210;27.910;2022-12-18T13:09:17;8.30;;;3.20;;
37367;SDS011;23240;43.210;27.910;2022-12-18T13:11:43;6.38;;;3.25;;
37367;SDS011;23240;43.210;27.910;2022-12-18T13:14:31;6.78;;;3.05;;
37367;SDS011;23240;43.210;27.910;2022-12-18T13:20:06;6.38;;;3.10;;
37367;SDS011;23240;43.210;27.910;2022-12-18T13:22:37;7.65;;;2.65;;
37367;SDS011;23240;43.210;27.910;2022-12-18T13:28:09;6.28;;;2.58;;
37367;SDS011;23240;43.210;27.910;2022-12-18T13:35:51;7.30;;;2.78;;
37367;SDS011;23240;43.210;27.910;2022-12-18T13:40:53;7.20;;;3.17;;
37367;SDS011;23240;43.210;27.910;2022-12-18T13:51:21;9.35;;;3.95;;
37367;SDS011;23240;43.210;27.910;2022-12-18T13:53:53;9.63;;;3.55;;
37367;SDS011;23240;43.210;27.910;2022-12-18T13:56:24;10.13;;;3.72;;
37367;SDS011;23240;43.210;27.910;2022-12-18T14:01:52;10.75;;;3.97;;
37367;SDS011;23240;43.210;27.910;2022-12-18T14:04:26;8.52;;;3.17;;
37367;SDS011;23240;43.210;27.910;2022-12-18T14:09:52;6.65;;;2.67;;
37367;SDS011;23240;43.210;27.910;2022-12-18T14:15:07;9.43;;;3.88;;
37367;SDS011;23240;43.210;27.910;2022-12-18T14:17:46;11.48;;;3.95;;
37367;SDS011;23240;43.210;27.910;2022-12-18T14:20:13;8.40;;;2.92;;
37367;SDS011;23240;43.210;27.910;2022-12-18T14:22:42;9.85;;;3.03;;
37367;SDS011;23240;43.210;27.910;2022-12-18T14:30:26;10.60;;;3.45;;
37367;SDS011;23240;43.210;27.910;2022-12-18T14:35:39;9.73;;;3.50;;
37367;SDS011;23240;43.210;27.910;2022-12-18T14:38:10;11.50;;;3.13;;
37367;SDS011;23240;43.210;27.910;2022-12-18T14:40:51;11.73;;;3.97;;
37367;SDS011;23240;43.210;27.910;2022-12-18T14:45:47;6.93;;;4.03;;
37367;SDS011;23240;43.210;27.910;2022-12-18T14:48:34;13.45;;;3.60;;
37367;SDS011;23240;43.210;27.910;2022-12-18T14:51:06;8.98;;;3.58;;
37367;SDS011;23240;43.210;27.910;2022-12-18T14:53:40;11.68;;;3.78;;
37367;SDS011;23240;43.210;27.910;2022-12-18T14:56:27;12.00;;;4.20;;
37367;SDS011;23240;43.210;27.910;2022-12-18T14:59:20;15.30;;;4.38;;
37367;SDS011;23240;43.210;27.910;2022-12-18T15:01:59;8.77;;;4.03;;
37367;SDS011;23240;43.210;27.910;2022-12-18T15:04:34;9.27;;;4.05;;
37367;SDS011;23240;43.210;27.910;2022-12-18T15:07:05;13.88;;;4.28;;
37367;SDS011;23240;43.210;27.910;2022-12-18T15:09:36;13.35;;;3.67;;
37367;SDS011;23240;43.210;27.910;2022-12-18T15:12:02;17.10;;;3.88;;
37367;SDS011;23240;43.210;27.910;2022-12-18T15:14:41;9.85;;;3.03;;
37367;SDS011;23240;43.210;27.910;2022-12-18T15:17:27;10.68;;;3.40;;
37367;SDS011;23240;43.210;27.910;2022-12-18T15:20:00;9.55;;;3.75;;
37367;SDS011;23240;43.210;27.910;2022-12-18T15:22:34;10.43;;;3.33;;
37367;SDS011;23240;43.210;27.910;2022-12-18T15:25:01;14.05;;;4.18;;
37367;SDS011;23240;43.210;27.910;2022-12-18T15:27:29;12.35;;;4.50;;
37367;SDS011;23240;43.210;27.910;2022-12-18T15:32:33;9.63;;;3.55;;
37367;SDS011;23240;43.210;27.910;2022-12-18T15:37:47;9.75;;;3.60;;
37367;SDS011;23240;43.210;27.910;2022-12-18T15:40:14;7.75;;;3.10;;
37367;SDS011;23240;43.210;27.910;2022-12-18T15:42:51;12.63;;;3.65;;
37367;SDS011;23240;43.210;27.910;2022-12-18T15:45:37;13.68;;;4.70;;
37367;SDS011;23240;43.210;27.910;2022-12-18T15:48:08;10.60;;;4.18;;
37367;SDS011;23240;43.210;27.910;2022-12-18T15:50:46;16.55;;;4.78;;
37367;SDS011;23240;43.210;27.910;2022-12-18T15:53:12;8.15;;;3.40;;
37367;SDS011;23240;43.210;27.910;2022-12-18T15:55:38;7.00;;;3.80;;
37367;SDS011;23240;43.210;27.910;2022-12-18T15:58:22;12.20;;;3.95;;
37367;SDS011;23240;43.210;27.910;2022-12-18T16:00:47;10.38;;;3.30;;
37367;SDS011;23240;43.210;27.910;2022-12-18T16:03:13;12.13;;;3.53;;
37367;SDS011;23240;43.210;27.910;2022-12-18T16:05:38;12.70;;;3.70;;
37367;SDS011;23240;43.210;27.910;2022-12-18T16:08:04;8.98;;;3.08;;
37367;SDS011;23240;43.210;27.910;2022-12-18T16:10:29;12.68;;;3.67;;
37367;SDS011;23240;43.210;27.910;2022-12-18T16:12:55;9.50;;;3.63;;
37367;SDS011;23240;43.210;27.910;2022-12-18T16:15:20;10.85;;;3.50;;
37367;SDS011;23240;43.210;27.910;2022-12-18T16:17:46;11.00;;;3.72;;
37367;SDS011;23240;43.210;27.910;2022-12-18T16:20:13;14.40;;;4.85;;
37367;SDS011;23240;43.210;27.910;2022-12-18T16:22:40;15.43;;;4.05;;
37367;SDS011;23240;43.210;27.910;2022-12-18T16:25:08;10.27;;;3.42;;
37367;SDS011;23240;43.210;27.910;2022-12-18T16:27:41;10.00;;;4.13;;
37367;SDS011;23240;43.210;27.910;2022-12-18T16:30:09;13.10;;;4.13;;
37367;SDS011;23240;43.210;27.910;2022-12-18T16:32:38;13.70;;;4.20;;
37367;SDS011;23240;43.210;27.910;2022-12-18T16:35:03;14.00;;;3.95;;
37367;SDS011;23240;43.210;27.910;2022-12-18T16:37:29;15.63;;;5.20;;
37367;SDS011;23240;43.210;27.910;2022-12-18T16:39:55;14.60;;;4.68;;
37367;SDS011;23240;43.210;27.910;2022-12-18T16:42:20;12.30;;;3.72;;
37367;SDS011;23240;43.210;27.910;2022-12-18T16:44:46;11.30;;;3.90;;
37367;SDS011;23240;43.210;27.910;2022-12-18T16:47:13;8.25;;;3.22;;
37367;SDS011;23240;43.210;27.910;2022-12-18T16:49:39;9.82;;;3.10;;
37367;SDS011;23240;43.210;27.910;2022-12-18T16:52:05;9.07;;;3.72;;
37367;SDS011;23240;43.210;27.910;2022-12-18T16:54:32;12.50;;;4.22;;
37367;SDS011;23240;43.210;27.910;2022-12-18T16:56:59;11.88;;;3.95;;
37367;SDS011;23240;43.210;27.910;2022-12-18T16:59:25;14.18;;;3.92;;
37367;SDS011;23240;43.210;27.910;2022-12-18T17:01:51;13.13;;;3.50;;
37367;SDS011;23240;43.210;27.910;2022-12-18T17:04:17;8.30;;;3.00;;
37367;SDS011;23240;43.210;27.910;2022-12-18T17:06:43;11.75;;;3.13;;
37367;SDS011;23240;43.210;27.910;2022-12-18T17:09:10;11.02;;;3.83;;
37367;SDS011;23240;43.210;27.910;2022-12-18T17:11:39;10.57;;;3.72;;
37367;SDS011;23240;43.210;27.910;2022-12-18T17:14:09;7.75;;;3.22;;
37367;SDS011;23240;43.210;27.910;2022-12-18T17:16:37;11.02;;;4.07;;
37367;SDS011;23240;43.210;27.910;2022-12-18T17:19:03;14.38;;;4.22;;
37367;SDS011;23240;43.210;27.910;2022-12-18T17:21:29;11.38;;;3.20;;
37367;SDS011;23240;43.210;27.910;2022-12-18T17:23:55;12.20;;;4.13;;
37367;SDS011;23240;43.210;27.910;2022-12-18T17:26:23;12.48;;;3.40;;